sensor_id;sensor_type;location;lat;lon;timestamp;P1;durP1;ratioP1;P2;durP2;ratioP2
16669;SDS011;8448;52.034;5.158;2022-09-03T00:00:11;4.45;;;2.50;;
16669;SDS011;8448;52.034;5.158;2022-09-03T00:02:40;3.08;;;2.40;;
16669;SDS011;8448;52.034;5.158;2022-09-03T00:05:12;3.45;;;2.42;;
16669;SDS011;8448;52.034;5.158;2022-09-03T00:07:46;4.53;;;2.60;;
16669;SDS011;8448;52.034;5.158;2022-09-03T00:10:20;2.97;;;2.40;;
16669;SDS011;8448;52.034;5.158;2022-09-03T00:12:51;2.83;;;2.20;;
16669;SDS011;8448;52.034;5.158;2022-09-03T00:15:22;4.00;;;2.30;;
16669;SDS011;8448;52.034;5.158;2022-09-03T00:17:50;4.35;;;2.53;;
16669;SDS011;8448;52.034;5.158;2022-09-03T00:20:21;4.43;;;2.40;;
16669;SDS011;8448;52.034;5.158;2022-09-03T00:22:54;4.22;;;2.40;;
16669;SDS011;8448;52.034;5.158;2022-09-03T00:25:24;3.60;;;2.60;;
16669;SDS011;8448;52.034;5.158;2022-09-03T00:27:55;4.55;;;2.60;;
16669;SDS011;8448;52.034;5.158;2022-09-03T00:30:27;5.68;;;2.65;;
16669;SDS011;8448;52.034;5.158;2022-09-03T00:32:56;5.18;;;2.47;;
16669;SDS011;8448;52.034;5.158;2022-09-03T00:35:26;4.35;;;2.42;;
16669;SDS011;8448;52.034;5.158;2022-09-03T00:37:57;6.45;;;2.33;;
16669;SDS011;8448;52.034;5.158;2022-09-03T00:40:38;3.35;;;2.42;;
16669;SDS011;8448;52.034;5.158;2022-09-03T00:43:16;5.25;;;2.40;;
16669;SDS011;8448;52.034;5.158;2022-09-03T00:45:52;7.47;;;2.70;;
16669;SDS011;8448;52.034;5.158;2022-09-03T00:48:23;3.40;;;2.30;;
16669;SDS011;8448;52.034;5.158;2022-09-03T00:50:57;4.35;;;2.42;;
16669;SDS011;8448;52.034;5.158;2022-09-03T00:53:36;5.70;;;2.40;;
16669;SDS011;8448;52.034;5.158;2022-09-03T00:56:11;3.20;;;2.42;;
16669;SDS011;8448;52.034;5.158;2022-09-03T00:59:00;4.45;;;2.55;;
16669;SDS011;8448;52.034;5.158;2022-09-03T01:01:35;2.65;;;2.42;;
16669;SDS011;8448;52.034;5.158;2022-09-03T01:04:08;3.78;;;2.70;;
16669;SDS011;8448;52.034;5.158;2022-09-03T01:06:48;4.93;;;2.70;;
16669;SDS011;8448;52.034;5.158;2022-09-03T01:09:27;5.50;;;2.70;;
16669;SDS011;8448;52.034;5.158;2022-09-03T01:12:02;3.28;;;2.58;;
16669;SDS011;8448;52.034;5.158;2022-09-03T01:14:40;3.10;;;2.80;;
16669;SDS011;8448;52.034;5.158;2022-09-03T01:17:15;3.78;;;2.80;;
16669;SDS011;8448;52.034;5.158;2022-09-03T01:19:51;2.53;;;2.33;;
16669;SDS011;8448;52.034;5.158;2022-09-03T01:22:45;3.03;;;2.30;;
16669;SDS011;8448;52.034;5.158;2022-09-03T01:25:40;4.13;;;2.97;;
16669;SDS011;8448;52.034;5.158;2022-09-03T01:28:24;2.70;;;2.40;;
16669;SDS011;8448;52.034;5.158;2022-09-03T01:30:59;4.22;;;2.40;;
16669;SDS011;8448;52.034;5.158;2022-09-03T01:33:36;4.63;;;2.85;;
16669;SDS011;8448;52.034;5.158;2022-09-03T01:36:07;2.53;;;2.33;;
16669;SDS011;8448;52.034;5.158;2022-09-03T01:38:41;5.68;;;2.70;;
16669;SDS011;8448;52.034;5.158;2022-09-03T01:41:13;2.92;;;2.60;;
16669;SDS011;8448;52.034;5.158;2022-09-03T01:44:07;4.57;;;2.45;;
16669;SDS011;8448;52.034;5.158;2022-09-03T01:46:42;6.18;;;2.50;;
16669;SDS011;8448;52.034;5.158;2022-09-03T01:49:13;3.67;;;2.40;;
16669;SDS011;8448;52.034;5.158;2022-09-03T01:51:47;4.40;;;2.30;;
16669;SDS011;8448;52.034;5.158;2022-09-03T01:54:25;3.53;;;2.28;;
16669;SDS011;8448;52.034;5.158;2022-09-03T01:57:23;2.47;;;2.08;;
16669;SDS011;8448;52.034;5.158;2022-09-03T02:00:15;3.08;;;2.28;;
16669;SDS011;8448;52.034;5.158;2022-09-03T02:02:45;3.77;;;2.40;;
16669;SDS011;8448;52.034;5.158;2022-09-03T02:05:15;2.50;;;2.20;;
16669;SDS011;8448;52.034;5.158;2022-09-03T02:07:49;3.25;;;2.20;;
16669;SDS011;8448;52.034;5.158;2022-09-03T02:10:20;2.83;;;2.38;;
16669;SDS011;8448;52.034;5.158;2022-09-03T02:12:53;2.60;;;2.08;;
16669;SDS011;8448;52.034;5.158;2022-09-03T02:15:24;4.65;;;2.30;;
16669;SDS011;8448;52.034;5.158;2022-09-03T02:17:52;3.40;;;2.30;;
16669;SDS011;8448;52.034;5.158;2022-09-03T02:20:23;4.07;;;2.50;;
16669;SDS011;8448;52.034;5.158;2022-09-03T02:22:52;3.77;;;2.30;;
16669;SDS011;8448;52.034;5.158;2022-09-03T02:25:20;3.25;;;2.20;;
16669;SDS011;8448;52.034;5.158;2022-09-03T02:27:48;3.90;;;2.30;;
16669;SDS011;8448;52.034;5.158;2022-09-03T02:30:16;3.53;;;2.30;;
16669;SDS011;8448;52.034;5.158;2022-09-03T02:32:45;3.70;;;2.40;;
16669;SDS011;8448;52.034;5.158;2022-09-03T02:35:12;4.35;;;2.30;;
16669;SDS011;8448;52.034;5.158;2022-09-03T02:37:39;3.85;;;2.38;;
16669;SDS011;8448;52.034;5.158;2022-09-03T02:40:07;3.15;;;2.15;;
16669;SDS011;8448;52.034;5.158;2022-09-03T02:42:36;3.00;;;2.20;;
16669;SDS011;8448;52.034;5.158;2022-09-03T02:45:06;3.58;;;2.40;;
16669;SDS011;8448;52.034;5.158;2022-09-03T02:47:39;3.67;;;2.25;;
16669;SDS011;8448;52.034;5.158;2022-09-03T02:50:10;5.00;;;2.47;;
16669;SDS011;8448;52.034;5.158;2022-09-03T02:52:37;3.35;;;2.22;;
16669;SDS011;8448;52.034;5.158;2022-09-03T02:55:04;2.55;;;2.15;;
16669;SDS011;8448;52.034;5.158;2022-09-03T02:57:32;4.78;;;2.40;;
16669;SDS011;8448;52.034;5.158;2022-09-03T02:59:59;3.10;;;2.35;;
16669;SDS011;8448;52.034;5.158;2022-09-03T03:02:26;4.60;;;2.38;;
16669;SDS011;8448;52.034;5.158;2022-09-03T03:04:54;3.00;;;2.22;;
16669;SDS011;8448;52.034;5.158;2022-09-03T03:07:22;4.63;;;2.40;;
16669;SDS011;8448;52.034;5.158;2022-09-03T03:09:50;5.03;;;2.55;;
16669;SDS011;8448;52.034;5.158;2022-09-03T03:12:17;4.40;;;2.17;;
16669;SDS011;8448;52.034;5.158;2022-09-03T03:14:45;2.67;;;2.35;;
16669;SDS011;8448;52.034;5.158;2022-09-03T03:17:12;3.80;;;2.40;;
16669;SDS011;8448;52.034;5.158;2022-09-03T03:19:40;3.70;;;2.55;;
16669;SDS011;8448;52.034;5.158;2022-09-03T03:22:07;6.60;;;2.60;;
16669;SDS011;8448;52.034;5.158;2022-09-03T03:24:35;6.25;;;2.20;;
16669;SDS011;8448;52.034;5.158;2022-09-03T03:27:03;3.17;;;2.40;;
16669;SDS011;8448;52.034;5.158;2022-09-03T03:29:32;3.17;;;2.33;;
16669;SDS011;8448;52.034;5.158;2022-09-03T03:32:00;2.90;;;2.22;;
16669;SDS011;8448;52.034;5.158;2022-09-03T03:34:28;2.40;;;2.17;;
16669;SDS011;8448;52.034;5.158;2022-09-03T03:36:55;2.72;;;2.20;;
16669;SDS011;8448;52.034;5.158;2022-09-03T03:39:24;3.33;;;2.45;;
16669;SDS011;8448;52.034;5.158;2022-09-03T03:41:52;3.75;;;2.42;;
16669;SDS011;8448;52.034;5.158;2022-09-03T03:44:20;4.38;;;2.40;;
16669;SDS011;8448;52.034;5.158;2022-09-03T03:46:48;2.92;;;2.40;;
16669;SDS011;8448;52.034;5.158;2022-09-03T03:49:15;3.77;;;2.30;;
16669;SDS011;8448;52.034;5.158;2022-09-03T03:51:42;4.00;;;2.30;;
16669;SDS011;8448;52.034;5.158;2022-09-03T03:54:09;2.55;;;2.30;;
16669;SDS011;8448;52.034;5.158;2022-09-03T03:56:37;2.65;;;2.10;;
16669;SDS011;8448;52.034;5.158;2022-09-03T03:59:05;3.90;;;2.15;;
16669;SDS011;8448;52.034;5.158;2022-09-03T04:01:33;3.58;;;2.22;;
16669;SDS011;8448;52.034;5.158;2022-09-03T04:04:00;2.90;;;2.13;;
16669;SDS011;8448;52.034;5.158;2022-09-03T04:06:27;7.30;;;2.25;;
16669;SDS011;8448;52.034;5.158;2022-09-03T04:08:55;4.93;;;2.60;;
16669;SDS011;8448;52.034;5.158;2022-09-03T04:11:22;3.33;;;2.38;;
16669;SDS011;8448;52.034;5.158;2022-09-03T04:13:50;3.38;;;2.17;;
16669;SDS011;8448;52.034;5.158;2022-09-03T04:16:20;3.00;;;2.10;;
16669;SDS011;8448;52.034;5.158;2022-09-03T04:18:48;4.28;;;2.55;;
16669;SDS011;8448;52.034;5.158;2022-09-03T04:21:16;2.78;;;2.00;;
16669;SDS011;8448;52.034;5.158;2022-09-03T04:23:45;3.25;;;2.20;;
16669;SDS011;8448;52.034;5.158;2022-09-03T04:26:14;3.47;;;2.50;;
16669;SDS011;8448;52.034;5.158;2022-09-03T04:28:42;3.83;;;2.45;;
16669;SDS011;8448;52.034;5.158;2022-09-03T04:31:10;4.95;;;2.42;;
16669;SDS011;8448;52.034;5.158;2022-09-03T04:33:40;3.03;;;2.15;;
16669;SDS011;8448;52.034;5.158;2022-09-03T04:36:08;2.33;;;2.13;;
16669;SDS011;8448;52.034;5.158;2022-09-03T04:38:37;2.83;;;2.53;;
16669;SDS011;8448;52.034;5.158;2022-09-03T04:41:06;2.97;;;2.40;;
16669;SDS011;8448;52.034;5.158;2022-09-03T04:43:34;3.67;;;2.67;;
16669;SDS011;8448;52.034;5.158;2022-09-03T04:46:03;3.75;;;2.47;;
16669;SDS011;8448;52.034;5.158;2022-09-03T04:48:32;2.78;;;2.25;;
16669;SDS011;8448;52.034;5.158;2022-09-03T04:51:03;2.72;;;2.15;;
16669;SDS011;8448;52.034;5.158;2022-09-03T04:53:32;6.38;;;2.63;;
16669;SDS011;8448;52.034;5.158;2022-09-03T04:56:01;3.22;;;2.47;;
16669;SDS011;8448;52.034;5.158;2022-09-03T04:58:29;3.67;;;2.33;;
16669;SDS011;8448;52.034;5.158;2022-09-03T05:00:56;2.33;;;2.10;;
16669;SDS011;8448;52.034;5.158;2022-09-03T05:03:23;2.83;;;2.17;;
16669;SDS011;8448;52.034;5.158;2022-09-03T05:05:52;2.55;;;2.22;;
16669;SDS011;8448;52.034;5.158;2022-09-03T05:08:21;2.58;;;1.98;;
16669;SDS011;8448;52.034;5.158;2022-09-03T05:10:49;2.50;;;2.30;;
16669;SDS011;8448;52.034;5.158;2022-09-03T05:13:22;4.03;;;2.05;;
16669;SDS011;8448;52.034;5.158;2022-09-03T05:15:49;3.75;;;2.30;;
16669;SDS011;8448;52.034;5.158;2022-09-03T05:18:17;4.35;;;2.10;;
16669;SDS011;8448;52.034;5.158;2022-09-03T05:20:45;4.75;;;2.20;;
16669;SDS011;8448;52.034;5.158;2022-09-03T05:23:12;3.85;;;1.92;;
16669;SDS011;8448;52.034;5.158;2022-09-03T05:25:41;2.50;;;2.15;;
16669;SDS011;8448;52.034;5.158;2022-09-03T05:28:08;3.47;;;1.92;;
16669;SDS011;8448;52.034;5.158;2022-09-03T05:30:35;3.83;;;2.10;;
16669;SDS011;8448;52.034;5.158;2022-09-03T05:33:03;2.90;;;2.20;;
16669;SDS011;8448;52.034;5.158;2022-09-03T05:35:30;4.13;;;2.30;;
16669;SDS011;8448;52.034;5.158;2022-09-03T05:37:57;2.72;;;2.08;;
16669;SDS011;8448;52.034;5.158;2022-09-03T05:40:24;5.18;;;2.33;;
16669;SDS011;8448;52.034;5.158;2022-09-03T05:42:56;3.33;;;2.20;;
16669;SDS011;8448;52.034;5.158;2022-09-03T05:45:24;5.55;;;2.30;;
16669;SDS011;8448;52.034;5.158;2022-09-03T05:47:51;3.95;;;2.20;;
16669;SDS011;8448;52.034;5.158;2022-09-03T05:50:19;3.50;;;2.30;;
16669;SDS011;8448;52.034;5.158;2022-09-03T05:52:46;4.25;;;2.15;;
16669;SDS011;8448;52.034;5.158;2022-09-03T05:55:13;3.03;;;2.10;;
16669;SDS011;8448;52.034;5.158;2022-09-03T05:57:40;2.72;;;2.10;;
16669;SDS011;8448;52.034;5.158;2022-09-03T06:00:11;2.83;;;2.20;;
16669;SDS011;8448;52.034;5.158;2022-09-03T06:02:38;2.20;;;1.98;;
16669;SDS011;8448;52.034;5.158;2022-09-03T06:05:06;3.70;;;2.10;;
16669;SDS011;8448;52.034;5.158;2022-09-03T06:07:34;3.25;;;2.10;;
16669;SDS011;8448;52.034;5.158;2022-09-03T06:10:01;2.13;;;1.80;;
16669;SDS011;8448;52.034;5.158;2022-09-03T06:12:29;3.05;;;2.08;;
16669;SDS011;8448;52.034;5.158;2022-09-03T06:14:56;4.03;;;2.25;;
16669;SDS011;8448;52.034;5.158;2022-09-03T06:17:25;3.08;;;2.42;;
16669;SDS011;8448;52.034;5.158;2022-09-03T06:19:52;4.60;;;2.47;;
16669;SDS011;8448;52.034;5.158;2022-09-03T06:22:19;2.95;;;2.15;;
16669;SDS011;8448;52.034;5.158;2022-09-03T06:24:49;4.30;;;2.47;;
16669;SDS011;8448;52.034;5.158;2022-09-03T06:27:16;2.75;;;2.00;;
16669;SDS011;8448;52.034;5.158;2022-09-03T06:29:45;3.08;;;2.05;;
16669;SDS011;8448;52.034;5.158;2022-09-03T06:32:12;5.60;;;2.17;;
16669;SDS011;8448;52.034;5.158;2022-09-03T06:34:41;2.88;;;2.13;;
16669;SDS011;8448;52.034;5.158;2022-09-03T06:37:08;3.42;;;2.10;;
16669;SDS011;8448;52.034;5.158;2022-09-03T06:39:35;3.05;;;2.00;;
16669;SDS011;8448;52.034;5.158;2022-09-03T06:42:03;3.60;;;2.00;;
16669;SDS011;8448;52.034;5.158;2022-09-03T06:44:34;2.70;;;1.98;;
16669;SDS011;8448;52.034;5.158;2022-09-03T06:47:02;4.20;;;2.30;;
16669;SDS011;8448;52.034;5.158;2022-09-03T06:49:29;4.15;;;2.40;;
16669;SDS011;8448;52.034;5.158;2022-09-03T06:51:58;2.78;;;2.20;;
16669;SDS011;8448;52.034;5.158;2022-09-03T06:54:25;4.88;;;2.20;;
16669;SDS011;8448;52.034;5.158;2022-09-03T06:56:52;2.58;;;2.08;;
16669;SDS011;8448;52.034;5.158;2022-09-03T06:59:20;2.30;;;2.10;;
16669;SDS011;8448;52.034;5.158;2022-09-03T07:01:47;3.50;;;2.10;;
16669;SDS011;8448;52.034;5.158;2022-09-03T07:04:14;4.10;;;2.08;;
16669;SDS011;8448;52.034;5.158;2022-09-03T07:06:42;5.78;;;2.10;;
16669;SDS011;8448;52.034;5.158;2022-09-03T07:09:12;2.30;;;2.10;;
16669;SDS011;8448;52.034;5.158;2022-09-03T07:11:42;2.80;;;2.00;;
16669;SDS011;8448;52.034;5.158;2022-09-03T07:14:12;4.03;;;2.05;;
16669;SDS011;8448;52.034;5.158;2022-09-03T07:16:39;3.05;;;1.80;;
16669;SDS011;8448;52.034;5.158;2022-09-03T07:19:07;2.78;;;1.77;;
16669;SDS011;8448;52.034;5.158;2022-09-03T07:21:37;2.92;;;2.00;;
16669;SDS011;8448;52.034;5.158;2022-09-03T07:24:09;2.55;;;1.90;;
16669;SDS011;8448;52.034;5.158;2022-09-03T07:26:41;4.35;;;2.22;;
16669;SDS011;8448;52.034;5.158;2022-09-03T07:29:10;5.22;;;2.10;;
16669;SDS011;8448;52.034;5.158;2022-09-03T07:31:40;6.10;;;2.03;;
16669;SDS011;8448;52.034;5.158;2022-09-03T07:34:10;2.15;;;1.40;;
16669;SDS011;8448;52.034;5.158;2022-09-03T07:36:38;5.47;;;2.03;;
16669;SDS011;8448;52.034;5.158;2022-09-03T07:39:07;2.72;;;1.80;;
16669;SDS011;8448;52.034;5.158;2022-09-03T07:41:35;5.15;;;2.20;;
16669;SDS011;8448;52.034;5.158;2022-09-03T07:44:04;4.57;;;1.95;;
16669;SDS011;8448;52.034;5.158;2022-09-03T07:46:34;2.63;;;2.05;;
16669;SDS011;8448;52.034;5.158;2022-09-03T07:49:03;2.25;;;1.80;;
16669;SDS011;8448;52.034;5.158;2022-09-03T07:51:32;4.70;;;1.73;;
16669;SDS011;8448;52.034;5.158;2022-09-03T07:54:00;4.00;;;1.80;;
16669;SDS011;8448;52.034;5.158;2022-09-03T07:56:29;4.53;;;2.10;;
16669;SDS011;8448;52.034;5.158;2022-09-03T07:58:57;3.42;;;2.10;;
16669;SDS011;8448;52.034;5.158;2022-09-03T08:01:26;2.40;;;1.80;;
16669;SDS011;8448;52.034;5.158;2022-09-03T08:03:55;4.30;;;1.90;;
16669;SDS011;8448;52.034;5.158;2022-09-03T08:06:23;2.90;;;1.80;;
16669;SDS011;8448;52.034;5.158;2022-09-03T08:08:53;2.78;;;1.80;;
16669;SDS011;8448;52.034;5.158;2022-09-03T08:11:23;2.85;;;2.00;;
16669;SDS011;8448;52.034;5.158;2022-09-03T08:13:53;4.18;;;2.13;;
16669;SDS011;8448;52.034;5.158;2022-09-03T08:16:26;3.15;;;1.73;;
16669;SDS011;8448;52.034;5.158;2022-09-03T08:18:54;5.22;;;2.08;;
16669;SDS011;8448;52.034;5.158;2022-09-03T08:21:21;2.72;;;1.73;;
16669;SDS011;8448;52.034;5.158;2022-09-03T08:23:50;6.13;;;1.90;;
16669;SDS011;8448;52.034;5.158;2022-09-03T08:26:19;3.85;;;2.20;;
16669;SDS011;8448;52.034;5.158;2022-09-03T08:28:47;6.13;;;2.33;;
16669;SDS011;8448;52.034;5.158;2022-09-03T08:31:19;3.65;;;2.30;;
16669;SDS011;8448;52.034;5.158;2022-09-03T08:33:50;3.35;;;2.03;;
16669;SDS011;8448;52.034;5.158;2022-09-03T08:36:20;4.55;;;2.00;;
16669;SDS011;8448;52.034;5.158;2022-09-03T08:38:49;3.88;;;2.03;;
16669;SDS011;8448;52.034;5.158;2022-09-03T08:41:19;2.83;;;1.80;;
16669;SDS011;8448;52.034;5.158;2022-09-03T08:43:57;3.63;;;1.90;;
16669;SDS011;8448;52.034;5.158;2022-09-03T08:46:35;2.92;;;2.00;;
16669;SDS011;8448;52.034;5.158;2022-09-03T08:49:11;3.10;;;1.83;;
16669;SDS011;8448;52.034;5.158;2022-09-03T08:51:40;4.50;;;1.92;;
16669;SDS011;8448;52.034;5.158;2022-09-03T08:54:08;4.10;;;2.05;;
16669;SDS011;8448;52.034;5.158;2022-09-03T08:56:37;5.47;;;2.00;;
16669;SDS011;8448;52.034;5.158;2022-09-03T08:59:06;2.10;;;1.88;;
16669;SDS011;8448;52.034;5.158;2022-09-03T09:01:37;5.50;;;2.13;;
16669;SDS011;8448;52.034;5.158;2022-09-03T09:04:14;3.67;;;2.03;;
16669;SDS011;8448;52.034;5.158;2022-09-03T09:06:49;2.53;;;1.60;;
16669;SDS011;8448;52.034;5.158;2022-09-03T09:09:23;4.10;;;1.88;;
16669;SDS011;8448;52.034;5.158;2022-09-03T09:11:58;4.90;;;2.13;;
16669;SDS011;8448;52.034;5.158;2022-09-03T09:14:33;3.63;;;2.00;;
16669;SDS011;8448;52.034;5.158;2022-09-03T09:17:05;4.07;;;1.80;;
16669;SDS011;8448;52.034;5.158;2022-09-03T09:19:47;3.70;;;1.83;;
16669;SDS011;8448;52.034;5.158;2022-09-03T09:22:20;3.53;;;2.10;;
16669;SDS011;8448;52.034;5.158;2022-09-03T09:24:52;2.55;;;1.80;;
16669;SDS011;8448;52.034;5.158;2022-09-03T09:27:20;4.78;;;1.90;;
16669;SDS011;8448;52.034;5.158;2022-09-03T09:29:48;3.83;;;1.90;;
16669;SDS011;8448;52.034;5.158;2022-09-03T09:32:16;3.58;;;1.80;;
16669;SDS011;8448;52.034;5.158;2022-09-03T09:34:45;3.72;;;1.83;;
16669;SDS011;8448;52.034;5.158;2022-09-03T09:37:14;3.92;;;1.85;;
16669;SDS011;8448;52.034;5.158;2022-09-03T09:39:52;3.78;;;2.03;;
16669;SDS011;8448;52.034;5.158;2022-09-03T09:42:21;6.35;;;1.95;;
16669;SDS011;8448;52.034;5.158;2022-09-03T09:44:49;3.88;;;2.38;;
16669;SDS011;8448;52.034;5.158;2022-09-03T09:47:20;4.43;;;2.20;;
16669;SDS011;8448;52.034;5.158;2022-09-03T09:49:54;3.88;;;1.80;;
16669;SDS011;8448;52.034;5.158;2022-09-03T09:52:23;2.60;;;1.88;;
16669;SDS011;8448;52.034;5.158;2022-09-03T09:54:53;5.43;;;2.10;;
16669;SDS011;8448;52.034;5.158;2022-09-03T09:57:32;4.85;;;1.90;;
16669;SDS011;8448;52.034;5.158;2022-09-03T10:00:03;1.90;;;1.67;;
16669;SDS011;8448;52.034;5.158;2022-09-03T10:02:37;4.40;;;2.10;;
16669;SDS011;8448;52.034;5.158;2022-09-03T10:05:14;4.32;;;1.90;;
16669;SDS011;8448;52.034;5.158;2022-09-03T10:07:53;2.95;;;1.70;;
16669;SDS011;8448;52.034;5.158;2022-09-03T10:10:21;1.73;;;1.63;;
16669;SDS011;8448;52.034;5.158;2022-09-03T10:12:50;4.65;;;1.70;;
16669;SDS011;8448;52.034;5.158;2022-09-03T10:15:24;2.25;;;1.73;;
16669;SDS011;8448;52.034;5.158;2022-09-03T10:17:57;4.07;;;1.88;;
16669;SDS011;8448;52.034;5.158;2022-09-03T10:20:32;2.45;;;2.00;;
16669;SDS011;8448;52.034;5.158;2022-09-03T10:23:05;3.72;;;1.60;;
16669;SDS011;8448;52.034;5.158;2022-09-03T10:25:37;8.75;;;1.50;;
16669;SDS011;8448;52.034;5.158;2022-09-03T10:28:07;4.13;;;1.80;;
16669;SDS011;8448;52.034;5.158;2022-09-03T10:30:39;4.68;;;1.63;;
16669;SDS011;8448;52.034;5.158;2022-09-03T10:33:31;4.57;;;1.98;;
16669;SDS011;8448;52.034;5.158;2022-09-03T10:36:06;3.08;;;1.48;;
16669;SDS011;8448;52.034;5.158;2022-09-03T10:38:37;5.25;;;1.75;;
16669;SDS011;8448;52.034;5.158;2022-09-03T10:41:09;4.18;;;1.67;;
16669;SDS011;8448;52.034;5.158;2022-09-03T10:43:47;2.38;;;1.60;;
16669;SDS011;8448;52.034;5.158;2022-09-03T10:46:35;3.22;;;1.83;;
16669;SDS011;8448;52.034;5.158;2022-09-03T10:49:18;3.03;;;1.80;;
16669;SDS011;8448;52.034;5.158;2022-09-03T10:51:54;4.68;;;1.92;;
16669;SDS011;8448;52.034;5.158;2022-09-03T10:54:30;5.50;;;1.90;;
16669;SDS011;8448;52.034;5.158;2022-09-03T10:57:07;3.10;;;1.58;;
16669;SDS011;8448;52.034;5.158;2022-09-03T10:59:42;7.18;;;1.88;;
16669;SDS011;8448;52.034;5.158;2022-09-03T11:02:28;2.83;;;1.33;;
16669;SDS011;8448;52.034;5.158;2022-09-03T11:05:08;3.85;;;1.35;;
16669;SDS011;8448;52.034;5.158;2022-09-03T11:07:42;4.75;;;1.60;;
16669;SDS011;8448;52.034;5.158;2022-09-03T11:10:13;1.92;;;1.48;;
16669;SDS011;8448;52.034;5.158;2022-09-03T11:12:44;2.75;;;1.75;;
16669;SDS011;8448;52.034;5.158;2022-09-03T11:15:15;5.57;;;1.70;;
16669;SDS011;8448;52.034;5.158;2022-09-03T11:17:49;3.00;;;1.88;;
16669;SDS011;8448;52.034;5.158;2022-09-03T11:20:22;4.75;;;1.73;;
16669;SDS011;8448;52.034;5.158;2022-09-03T11:22:52;3.00;;;1.77;;
16669;SDS011;8448;52.034;5.158;2022-09-03T11:25:21;3.42;;;1.90;;
16669;SDS011;8448;52.034;5.158;2022-09-03T11:27:53;5.00;;;1.83;;
16669;SDS011;8448;52.034;5.158;2022-09-03T11:30:27;4.35;;;1.80;;
16669;SDS011;8448;52.034;5.158;2022-09-03T11:32:59;4.13;;;2.00;;
16669;SDS011;8448;52.034;5.158;2022-09-03T11:35:36;3.17;;;1.77;;
16669;SDS011;8448;52.034;5.158;2022-09-03T11:38:07;2.80;;;1.83;;
16669;SDS011;8448;52.034;5.158;2022-09-03T11:40:56;4.25;;;1.77;;
16669;SDS011;8448;52.034;5.158;2022-09-03T11:43:25;2.80;;;1.70;;
16669;SDS011;8448;52.034;5.158;2022-09-03T11:46:00;7.90;;;1.90;;
16669;SDS011;8448;52.034;5.158;2022-09-03T11:48:32;4.63;;;1.90;;
16669;SDS011;8448;52.034;5.158;2022-09-03T11:51:02;3.35;;;1.70;;
16669;SDS011;8448;52.034;5.158;2022-09-03T11:53:35;2.60;;;1.70;;
16669;SDS011;8448;52.034;5.158;2022-09-03T11:56:11;2.83;;;1.73;;
16669;SDS011;8448;52.034;5.158;2022-09-03T11:58:43;5.18;;;1.95;;
16669;SDS011;8448;52.034;5.158;2022-09-03T12:01:11;4.60;;;1.70;;
16669;SDS011;8448;52.034;5.158;2022-09-03T12:03:41;4.97;;;1.88;;
16669;SDS011;8448;52.034;5.158;2022-09-03T12:06:18;4.97;;;1.85;;
16669;SDS011;8448;52.034;5.158;2022-09-03T12:09:14;3.08;;;1.73;;
16669;SDS011;8448;52.034;5.158;2022-09-03T12:11:53;4.32;;;1.90;;
16669;SDS011;8448;52.034;5.158;2022-09-03T12:14:26;4.78;;;1.88;;
16669;SDS011;8448;52.034;5.158;2022-09-03T12:17:10;4.32;;;1.70;;
16669;SDS011;8448;52.034;5.158;2022-09-03T12:19:45;4.18;;;1.98;;
16669;SDS011;8448;52.034;5.158;2022-09-03T12:22:16;2.95;;;2.10;;
16669;SDS011;8448;52.034;5.158;2022-09-03T12:24:46;4.47;;;2.03;;
16669;SDS011;8448;52.034;5.158;2022-09-03T12:27:15;2.17;;;1.88;;
16669;SDS011;8448;52.034;5.158;2022-09-03T12:29:53;3.60;;;1.88;;
16669;SDS011;8448;52.034;5.158;2022-09-03T12:32:24;3.88;;;1.92;;
16669;SDS011;8448;52.034;5.158;2022-09-03T12:34:53;2.75;;;1.80;;
16669;SDS011;8448;52.034;5.158;2022-09-03T12:37:21;3.92;;;1.90;;
16669;SDS011;8448;52.034;5.158;2022-09-03T12:39:51;4.47;;;2.00;;
16669;SDS011;8448;52.034;5.158;2022-09-03T12:42:21;6.28;;;1.88;;
16669;SDS011;8448;52.034;5.158;2022-09-03T12:44:50;2.70;;;1.90;;
16669;SDS011;8448;52.034;5.158;2022-09-03T12:47:18;4.47;;;2.00;;
16669;SDS011;8448;52.034;5.158;2022-09-03T12:49:46;5.28;;;1.85;;
16669;SDS011;8448;52.034;5.158;2022-09-03T12:52:17;3.05;;;2.00;;
16669;SDS011;8448;52.034;5.158;2022-09-03T12:54:47;4.18;;;1.85;;
16669;SDS011;8448;52.034;5.158;2022-09-03T12:57:19;2.15;;;1.90;;
16669;SDS011;8448;52.034;5.158;2022-09-03T12:59:49;2.47;;;1.92;;
16669;SDS011;8448;52.034;5.158;2022-09-03T13:02:19;3.65;;;2.00;;
16669;SDS011;8448;52.034;5.158;2022-09-03T13:04:49;5.78;;;2.40;;
16669;SDS011;8448;52.034;5.158;2022-09-03T13:07:20;3.67;;;2.00;;
16669;SDS011;8448;52.034;5.158;2022-09-03T13:09:49;3.05;;;2.10;;
16669;SDS011;8448;52.034;5.158;2022-09-03T13:12:22;5.28;;;1.77;;
16669;SDS011;8448;52.034;5.158;2022-09-03T13:14:53;4.35;;;1.83;;
16669;SDS011;8448;52.034;5.158;2022-09-03T13:17:29;3.40;;;1.95;;
16669;SDS011;8448;52.034;5.158;2022-09-03T13:20:20;4.50;;;2.20;;
16669;SDS011;8448;52.034;5.158;2022-09-03T13:23:05;3.05;;;2.03;;
16669;SDS011;8448;52.034;5.158;2022-09-03T13:25:39;2.70;;;2.00;;
16669;SDS011;8448;52.034;5.158;2022-09-03T13:28:18;4.15;;;2.42;;
16669;SDS011;8448;52.034;5.158;2022-09-03T13:30:53;4.72;;;2.53;;
16669;SDS011;8448;52.034;5.158;2022-09-03T13:33:24;4.30;;;2.25;;
16669;SDS011;8448;52.034;5.158;2022-09-03T13:35:58;2.65;;;1.90;;
16669;SDS011;8448;52.034;5.158;2022-09-03T13:38:29;5.40;;;2.08;;
16669;SDS011;8448;52.034;5.158;2022-09-03T13:41:00;3.75;;;1.90;;
16669;SDS011;8448;52.034;5.158;2022-09-03T13:43:32;2.90;;;2.00;;
16669;SDS011;8448;52.034;5.158;2022-09-03T13:46:06;3.10;;;2.20;;
16669;SDS011;8448;52.034;5.158;2022-09-03T13:48:37;5.93;;;2.42;;
16669;SDS011;8448;52.034;5.158;2022-09-03T13:51:24;4.90;;;2.30;;
16669;SDS011;8448;52.034;5.158;2022-09-03T13:53:58;3.50;;;2.20;;
16669;SDS011;8448;52.034;5.158;2022-09-03T13:56:36;5.65;;;2.50;;
16669;SDS011;8448;52.034;5.158;2022-09-03T13:59:16;6.35;;;2.60;;
16669;SDS011;8448;52.034;5.158;2022-09-03T14:01:57;5.47;;;2.83;;
16669;SDS011;8448;52.034;5.158;2022-09-03T14:04:46;5.07;;;4.15;;
16669;SDS011;8448;52.034;5.158;2022-09-03T14:07:21;5.43;;;4.20;;
16669;SDS011;8448;52.034;5.158;2022-09-03T14:09:53;5.55;;;4.60;;
16669;SDS011;8448;52.034;5.158;2022-09-03T14:12:33;5.20;;;4.22;;
16669;SDS011;8448;52.034;5.158;2022-09-03T14:15:07;6.90;;;6.28;;
16669;SDS011;8448;52.034;5.158;2022-09-03T14:17:41;5.68;;;4.00;;
16669;SDS011;8448;52.034;5.158;2022-09-03T14:20:16;8.65;;;2.30;;
16669;SDS011;8448;52.034;5.158;2022-09-03T14:22:48;2.83;;;2.35;;
16669;SDS011;8448;52.034;5.158;2022-09-03T14:25:19;3.80;;;2.47;;
16669;SDS011;8448;52.034;5.158;2022-09-03T14:27:49;3.42;;;2.78;;
16669;SDS011;8448;52.034;5.158;2022-09-03T14:30:18;4.50;;;2.22;;
16669;SDS011;8448;52.034;5.158;2022-09-03T14:32:51;5.18;;;2.60;;
16669;SDS011;8448;52.034;5.158;2022-09-03T14:35:29;5.47;;;2.40;;
16669;SDS011;8448;52.034;5.158;2022-09-03T14:38:09;3.70;;;2.40;;
16669;SDS011;8448;52.034;5.158;2022-09-03T14:40:49;3.67;;;2.30;;
16669;SDS011;8448;52.034;5.158;2022-09-03T14:43:26;4.18;;;2.60;;
16669;SDS011;8448;52.034;5.158;2022-09-03T14:46:05;3.03;;;2.17;;
16669;SDS011;8448;52.034;5.158;2022-09-03T14:48:47;2.78;;;2.08;;
16669;SDS011;8448;52.034;5.158;2022-09-03T14:51:34;3.50;;;2.40;;
16669;SDS011;8448;52.034;5.158;2022-09-03T14:54:11;3.55;;;2.30;;
16669;SDS011;8448;52.034;5.158;2022-09-03T14:56:48;2.72;;;2.35;;
16669;SDS011;8448;52.034;5.158;2022-09-03T14:59:26;3.33;;;2.63;;
16669;SDS011;8448;52.034;5.158;2022-09-03T15:02:30;3.22;;;2.30;;
16669;SDS011;8448;52.034;5.158;2022-09-03T15:05:41;4.63;;;2.20;;
16669;SDS011;8448;52.034;5.158;2022-09-03T15:08:15;4.82;;;2.40;;
16669;SDS011;8448;52.034;5.158;2022-09-03T15:10:54;4.15;;;2.30;;
16669;SDS011;8448;52.034;5.158;2022-09-03T15:13:25;2.65;;;2.40;;
16669;SDS011;8448;52.034;5.158;2022-09-03T15:16:01;2.88;;;2.25;;
16669;SDS011;8448;52.034;5.158;2022-09-03T15:18:37;3.25;;;2.10;;
16669;SDS011;8448;52.034;5.158;2022-09-03T15:21:14;5.70;;;3.33;;
16669;SDS011;8448;52.034;5.158;2022-09-03T15:23:51;2.40;;;2.20;;
16669;SDS011;8448;52.034;5.158;2022-09-03T15:26:28;2.95;;;2.20;;
16669;SDS011;8448;52.034;5.158;2022-09-03T15:29:09;2.95;;;2.63;;